AIRPORT_AIRPORT_METAR
METAR FOR LYBE
ADDS - METARS form results

(1535 UTC 18 August 2019)
Data provider http://aviationweather.gov/metar/data/
 
METAR text: LYBE 181530Z VRB02KT CAVOK 30/13 Q1015 NOSIG
Conditions at: LYBE (BELGRADE/SURCIN , CS) observed 1530 UTC 18 August 2019
Temperature: 30.0°C (86°F)
Dewpoint: 13.0°C (55°F) [RH = 35%]
Pressure (altimeter): 29.97 inches Hg (1015.0 mb)
Winds: variable direction winds at 2 MPH (2 knots; 1.0 m/s)
Visibility: 6 or more miles (10+ km)
Ceiling: ceiling and visibility are OK
Clouds: unknown
Weather: no significant weather observed at this time

METAR text: LYBE 181500Z VRB02KT CAVOK 30/12 Q1016 NOSIG
Conditions at: LYBE (BELGRADE/SURCIN , CS) observed 1500 UTC 18 August 2019
Temperature: 30.0°C (86°F)
Dewpoint: 12.0°C (54°F) [RH = 33%]
Pressure (altimeter): 30.00 inches Hg (1016.0 mb)
Winds: variable direction winds at 2 MPH (2 knots; 1.0 m/s)
Visibility: 6 or more miles (10+ km)
Ceiling: ceiling and visibility are OK
Clouds: unknown
Weather: no significant weather observed at this time

Forecast for: LYBE (BELGRADE/SURCIN , CS)
Text: TAF LYBE 181100Z 1812/1912 16006KT CAVOK TX31/1912Z TN16/1903Z
Forecast period: 1200 UTC 18 August 2019 to 1200 UTC 19 August 2019
Forecast type: FROM: standard forecast or significant change
Winds: from the SSE (160 degrees) at 7 MPH (6 knots; 3.1 m/s)
Visibility: 6 or more miles 10+ km)
Ceiling: unknown
Clouds: missing
Weather: no significant weather forecast for this period

 AIRPORT_AIRPORT_MAP

 AIRPORT_RUNWAY_INFO
AIRPORT_RUNWAY 12 AIRPORT_RUNWAY_LENGTH 11155 ft AIRPORT_RUNWAY_WIDTH 148 ft
AIRPORT_RUNWAY_ELEVATION 318 ft AIRPORT_RUNWAY_THRESHOLD 0 ft AIRPORT_RUNWAY_HEADING 122
AIRPORT_RUNWAY 30 AIRPORT_RUNWAY_LENGTH 11155 ft AIRPORT_RUNWAY_WIDTH 148 ft
AIRPORT_RUNWAY_ELEVATION 335 ft AIRPORT_RUNWAY_THRESHOLD 1312 ft AIRPORT_RUNWAY_HEADING 302

 AIRPORT_AIRPORT_FREQUENCIES
AIRPORT_AIRPORT_NAVAIDS_TYPE APP AIRPORT_AIRPORT_NAVAIDS_NAME APP AIRPORT_AIRPORT_NAVAIDS_FREQ 119.1 MHZ
AIRPORT_AIRPORT_NAVAIDS_TYPE ATIS AIRPORT_AIRPORT_NAVAIDS_NAME INFO AIRPORT_AIRPORT_NAVAIDS_FREQ 122.925 MHZ
AIRPORT_AIRPORT_NAVAIDS_TYPE TWR AIRPORT_AIRPORT_NAVAIDS_NAME TWR AIRPORT_AIRPORT_NAVAIDS_FREQ 118.1 MHZ

 AIRPORT_AIRPORT_NAVAIDS
AIRPORT_AIRPORT_NAVAIDS_TYPE VOR-DME AIRPORT_AIRPORT_NAVAIDS_NAME Beograd AIRPORT_AIRPORT_NAVAIDS_FREQ 112300 KHZ
AIRPORT_AIRPORT_NAVAIDS_TYPE NDB AIRPORT_AIRPORT_NAVAIDS_NAME Beograd AIRPORT_AIRPORT_NAVAIDS_FREQ 316 KHZ
AIRPORT_AIRPORT_NAVAIDS_TYPE NDB AIRPORT_AIRPORT_NAVAIDS_NAME Beograd AIRPORT_AIRPORT_NAVAIDS_FREQ 380 KHZ
AIRPORT_AIRPORT_NAVAIDS_TYPE NDB AIRPORT_AIRPORT_NAVAIDS_NAME Beograd AIRPORT_AIRPORT_NAVAIDS_FREQ 355 KHZ



Copyright © 2005-2019 - Virtuel Air Alsace - Tous droits réservés